Avenel, New Jersey
Current Conditions -  °F | °C
As of 2:15 AM on Saturday 20 Dec 2014 (Local Time) from KLDJ Reporting Station
Overcast Overcast  
Wind Chill: 29°   Ceiling: 2700
Heat Index: 36°   Visibility: 10mi
Dew Point: 25°   Wind: 8mph
Humidity: 64%   Direction: 360°N
Pressure: 30.22"   Gusts: NA
Location:  40.58°N, 74.28°W
Report Text: KLDJ 200715Z AUTO 36007KT 10SM OVC027 02/M04 A3022 RMK AO2 T00211040
Loading
Personal Weather Stations






























Interactive Weather Map New forecast layout! Learn more

10-Day Weather Forecast

Advertisements
Track Severe Weather on mobile